sensor_id;sensor_type;location;lat;lon;timestamp;temperature;humidity
65864;SHT30;52639;51.180;20.460;2024-03-07T00:01:49;1.37;87.50
65864;SHT30;52639;51.180;20.460;2024-03-07T00:05:51;1.32;87.85
65864;SHT30;52639;51.180;20.460;2024-03-07T00:10:08;1.23;87.88
65864;SHT30;52639;51.180;20.460;2024-03-07T00:14:10;1.02;88.66
65864;SHT30;52639;51.180;20.460;2024-03-07T00:18:12;0.86;89.31
65864;SHT30;52639;51.180;20.460;2024-03-07T00:22:15;0.69;90.17
65864;SHT30;52639;51.180;20.460;2024-03-07T00:26:19;0.66;90.52
65864;SHT30;52639;51.180;20.460;2024-03-07T00:30:21;0.71;89.82
65864;SHT30;52639;51.180;20.460;2024-03-07T00:34:23;0.65;89.26
65864;SHT30;52639;51.180;20.460;2024-03-07T00:38:26;0.54;89.86
65864;SHT30;52639;51.180;20.460;2024-03-07T00:42:30;0.57;89.92
65864;SHT30;52639;51.180;20.460;2024-03-07T00:46:32;0.41;89.96
65864;SHT30;52639;51.180;20.460;2024-03-07T00:50:36;0.30;90.47
65864;SHT30;52639;51.180;20.460;2024-03-07T00:54:37;0.11;90.68
65864;SHT30;52639;51.180;20.460;2024-03-07T00:58:41;0.00;91.43
65864;SHT30;52639;51.180;20.460;2024-03-07T01:02:43;0.11;92.12
65864;SHT30;52639;51.180;20.460;2024-03-07T01:06:46;0.18;91.72
65864;SHT30;52639;51.180;20.460;2024-03-07T01:10:48;0.18;91.34
65864;SHT30;52639;51.180;20.460;2024-03-07T01:14:51;0.25;90.48
65864;SHT30;52639;51.180;20.460;2024-03-07T01:18:53;0.27;90.39
65864;SHT30;52639;51.180;20.460;2024-03-07T01:22:55;0.25;90.27
65864;SHT30;52639;51.180;20.460;2024-03-07T01:26:59;0.28;89.52
65864;SHT30;52639;51.180;20.460;2024-03-07T01:31:07;0.31;88.74
65864;SHT30;52639;51.180;20.460;2024-03-07T01:35:10;0.31;88.70
65864;SHT30;52639;51.180;20.460;2024-03-07T01:39:14;0.28;88.51
65864;SHT30;52639;51.180;20.460;2024-03-07T01:43:22;0.28;88.40
65864;SHT30;52639;51.180;20.460;2024-03-07T01:47:25;0.30;88.21
65864;SHT30;52639;51.180;20.460;2024-03-07T01:51:27;0.31;87.72
65864;SHT30;52639;51.180;20.460;2024-03-07T01:55:32;0.31;88.28
65864;SHT30;52639;51.180;20.460;2024-03-07T01:59:34;0.34;88.21
65864;SHT30;52639;51.180;20.460;2024-03-07T02:03:38;0.34;88.25
65864;SHT30;52639;51.180;20.460;2024-03-07T02:07:40;0.34;88.27
65864;SHT30;52639;51.180;20.460;2024-03-07T02:11:42;0.31;88.39
65864;SHT30;52639;51.180;20.460;2024-03-07T02:15:44;0.28;88.48
65864;SHT30;52639;51.180;20.460;2024-03-07T02:19:47;0.22;88.71
65864;SHT30;52639;51.180;20.460;2024-03-07T02:23:50;0.21;88.97
65864;SHT30;52639;51.180;20.460;2024-03-07T02:28:04;0.14;89.34
65864;SHT30;52639;51.180;20.460;2024-03-07T02:32:06;0.10;89.38
65864;SHT30;52639;51.180;20.460;2024-03-07T02:36:08;0.01;89.31
65864;SHT30;52639;51.180;20.460;2024-03-07T02:40:14;-0.06;90.02
65864;SHT30;52639;51.180;20.460;2024-03-07T02:44:16;-0.13;90.22
65864;SHT30;52639;51.180;20.460;2024-03-07T02:48:18;-0.16;90.39
65864;SHT30;52639;51.180;20.460;2024-03-07T02:52:19;-0.17;90.27
65864;SHT30;52639;51.180;20.460;2024-03-07T02:56:23;-0.18;90.55
65864;SHT30;52639;51.180;20.460;2024-03-07T03:00:25;-0.21;90.78
65864;SHT30;52639;51.180;20.460;2024-03-07T03:04:30;-0.18;90.70
65864;SHT30;52639;51.180;20.460;2024-03-07T03:08:31;-0.23;90.66
65864;SHT30;52639;51.180;20.460;2024-03-07T03:12:37;-0.34;90.80
65864;SHT30;52639;51.180;20.460;2024-03-07T03:16:40;-0.44;91.09
65864;SHT30;52639;51.180;20.460;2024-03-07T03:20:43;-0.62;91.55
65864;SHT30;52639;51.180;20.460;2024-03-07T03:24:50;-0.68;92.92
65864;SHT30;52639;51.180;20.460;2024-03-07T03:28:57;-0.75;92.88
65864;SHT30;52639;51.180;20.460;2024-03-07T03:32:59;-0.84;92.32
65864;SHT30;52639;51.180;20.460;2024-03-07T03:37:01;-1.06;92.48
65864;SHT30;52639;51.180;20.460;2024-03-07T03:41:03;-1.11;93.27
65864;SHT30;52639;51.180;20.460;2024-03-07T03:45:07;-1.09;94.00
65864;SHT30;52639;51.180;20.460;2024-03-07T03:53:26;-1.11;94.05
65864;SHT30;52639;51.180;20.460;2024-03-07T03:57:28;-1.23;93.70
65864;SHT30;52639;51.180;20.460;2024-03-07T04:01:32;-1.26;95.15
65864;SHT30;52639;51.180;20.460;2024-03-07T04:05:34;-1.38;94.65
65864;SHT30;52639;51.180;20.460;2024-03-07T04:09:36;-1.38;94.65
65864;SHT30;52639;51.180;20.460;2024-03-07T04:13:38;-1.40;95.08
65864;SHT30;52639;51.180;20.460;2024-03-07T04:17:42;-1.33;95.53
65864;SHT30;52639;51.180;20.460;2024-03-07T04:21:44;-1.17;95.31
65864;SHT30;52639;51.180;20.460;2024-03-07T04:25:46;-1.17;94.94
65864;SHT30;52639;51.180;20.460;2024-03-07T04:29:47;-1.19;94.31
65864;SHT30;52639;51.180;20.460;2024-03-07T04:33:51;-1.08;94.57
65864;SHT30;52639;51.180;20.460;2024-03-07T04:37:53;-1.02;93.98
65864;SHT30;52639;51.180;20.460;2024-03-07T04:41:55;-1.08;94.05
65864;SHT30;52639;51.180;20.460;2024-03-07T04:45:57;-1.12;94.47
65864;SHT30;52639;51.180;20.460;2024-03-07T04:50:00;-1.15;93.98
65864;SHT30;52639;51.180;20.460;2024-03-07T04:54:03;-1.20;94.23
65864;SHT30;52639;51.180;20.460;2024-03-07T04:58:05;-1.25;94.48
65864;SHT30;52639;51.180;20.460;2024-03-07T05:02:07;-1.16;94.35
65864;SHT30;52639;51.180;20.460;2024-03-07T05:06:10;-1.15;94.17
65864;SHT30;52639;51.180;20.460;2024-03-07T05:14:36;-1.16;93.76
65864;SHT30;52639;51.180;20.460;2024-03-07T05:18:38;-1.23;93.82
65864;SHT30;52639;51.180;20.460;2024-03-07T05:22:42;-1.25;93.91
65864;SHT30;52639;51.180;20.460;2024-03-07T05:26:50;-1.33;93.75
65864;SHT30;52639;51.180;20.460;2024-03-07T05:30:53;-1.32;93.74
65864;SHT30;52639;51.180;20.460;2024-03-07T05:34:55;-1.28;93.69
65864;SHT30;52639;51.180;20.460;2024-03-07T05:38:59;-1.28;93.59
65864;SHT30;52639;51.180;20.460;2024-03-07T05:43:07;-1.22;93.55
65864;SHT30;52639;51.180;20.460;2024-03-07T05:47:09;-1.15;93.24
65864;SHT30;52639;51.180;20.460;2024-03-07T05:51:14;-1.12;92.96
65864;SHT30;52639;51.180;20.460;2024-03-07T05:55:17;-0.95;93.09
65864;SHT30;52639;51.180;20.460;2024-03-07T05:59:23;-0.81;92.52
65864;SHT30;52639;51.180;20.460;2024-03-07T06:03:24;-0.75;91.83
65864;SHT30;52639;51.180;20.460;2024-03-07T06:07:40;-0.62;91.61
65864;SHT30;52639;51.180;20.460;2024-03-07T06:11:43;-0.37;90.65
65864;SHT30;52639;51.180;20.460;2024-03-07T06:15:46;-0.04;89.25
65864;SHT30;52639;51.180;20.460;2024-03-07T06:19:48;0.44;86.68
65864;SHT30;52639;51.180;20.460;2024-03-07T06:23:50;1.73;85.63
65864;SHT30;52639;51.180;20.460;2024-03-07T06:28:01;2.66;79.80
65864;SHT30;52639;51.180;20.460;2024-03-07T06:32:09;2.68;78.83
65864;SHT30;52639;51.180;20.460;2024-03-07T06:36:12;1.03;82.29
65864;SHT30;52639;51.180;20.460;2024-03-07T06:40:14;0.38;85.16
65864;SHT30;52639;51.180;20.460;2024-03-07T06:44:23;0.40;86.16
65864;SHT30;52639;51.180;20.460;2024-03-07T06:48:26;0.38;85.09
65864;SHT30;52639;51.180;20.460;2024-03-07T06:52:28;0.47;85.06
65864;SHT30;52639;51.180;20.460;2024-03-07T06:56:30;0.76;84.96
65864;SHT30;52639;51.180;20.460;2024-03-07T07:00:33;1.66;83.72
65864;SHT30;52639;51.180;20.460;2024-03-07T07:04:45;3.00;80.17
65864;SHT30;52639;51.180;20.460;2024-03-07T07:08:48;3.71;76.44
65864;SHT30;52639;51.180;20.460;2024-03-07T07:12:50;3.84;72.51
65864;SHT30;52639;51.180;20.460;2024-03-07T07:16:56;4.26;70.06
65864;SHT30;52639;51.180;20.460;2024-03-07T07:25:26;5.14;66.99
65864;SHT30;52639;51.180;20.460;2024-03-07T07:29:28;4.38;68.20
65864;SHT30;52639;51.180;20.460;2024-03-07T07:33:32;5.28;72.57
65864;SHT30;52639;51.180;20.460;2024-03-07T07:37:34;4.94;66.46
65864;SHT30;52639;51.180;20.460;2024-03-07T07:41:36;5.27;68.34
65864;SHT30;52639;51.180;20.460;2024-03-07T07:45:38;4.98;68.34
65864;SHT30;52639;51.180;20.460;2024-03-07T07:49:42;5.32;69.12
65864;SHT30;52639;51.180;20.460;2024-03-07T07:53:44;4.87;67.95
65864;SHT30;52639;51.180;20.460;2024-03-07T07:57:46;5.05;66.29
65864;SHT30;52639;51.180;20.460;2024-03-07T08:01:48;5.14;65.72
65864;SHT30;52639;51.180;20.460;2024-03-07T08:05:54;6.26;63.89
65864;SHT30;52639;51.180;20.460;2024-03-07T08:09:56;6.10;62.39
65864;SHT30;52639;51.180;20.460;2024-03-07T08:13:59;5.92;67.84
65864;SHT30;52639;51.180;20.460;2024-03-07T08:18:01;6.46;65.87
65864;SHT30;52639;51.180;20.460;2024-03-07T08:22:10;7.18;69.51
65864;SHT30;52639;51.180;20.460;2024-03-07T08:26:12;6.48;63.76
65864;SHT30;52639;51.180;20.460;2024-03-07T08:30:16;5.81;63.72
65864;SHT30;52639;51.180;20.460;2024-03-07T08:34:18;6.13;62.93
65864;SHT30;52639;51.180;20.460;2024-03-07T08:38:21;6.07;61.53
65864;SHT30;52639;51.180;20.460;2024-03-07T08:42:23;7.41;62.43
65864;SHT30;52639;51.180;20.460;2024-03-07T08:46:25;8.06;61.11
65864;SHT30;52639;51.180;20.460;2024-03-07T08:50:29;7.87;60.01
65864;SHT30;52639;51.180;20.460;2024-03-07T08:54:33;8.92;55.92
65864;SHT30;52639;51.180;20.460;2024-03-07T08:58:35;8.01;56.32
65864;SHT30;52639;51.180;20.460;2024-03-07T09:02:38;8.13;59.54
65864;SHT30;52639;51.180;20.460;2024-03-07T09:10:48;7.79;57.87
65864;SHT30;52639;51.180;20.460;2024-03-07T09:14:55;7.87;56.58
65864;SHT30;52639;51.180;20.460;2024-03-07T09:18:57;8.48;57.01
65864;SHT30;52639;51.180;20.460;2024-03-07T09:22:59;8.38;54.67
65864;SHT30;52639;51.180;20.460;2024-03-07T09:27:03;9.30;52.11
65864;SHT30;52639;51.180;20.460;2024-03-07T09:31:05;8.88;53.99
65864;SHT30;52639;51.180;20.460;2024-03-07T09:35:09;9.01;53.91
65864;SHT30;52639;51.180;20.460;2024-03-07T09:39:14;8.72;54.35
65864;SHT30;52639;51.180;20.460;2024-03-07T09:43:17;8.84;56.30
65864;SHT30;52639;51.180;20.460;2024-03-07T09:47:20;9.91;53.17
65864;SHT30;52639;51.180;20.460;2024-03-07T09:51:22;10.13;52.21
65864;SHT30;52639;51.180;20.460;2024-03-07T09:55:24;10.05;51.80
65864;SHT30;52639;51.180;20.460;2024-03-07T09:59:28;9.33;53.20
65864;SHT30;52639;51.180;20.460;2024-03-07T10:03:30;8.85;53.09
65864;SHT30;52639;51.180;20.460;2024-03-07T10:07:32;9.16;53.41
65864;SHT30;52639;51.180;20.460;2024-03-07T10:15:46;5.10;64.80
65864;SHT30;52639;51.180;20.460;2024-03-07T10:19:49;5.01;64.39
65864;SHT30;52639;51.180;20.460;2024-03-07T10:24:03;3.86;68.00
65864;SHT30;52639;51.180;20.460;2024-03-07T10:28:06;4.06;68.23
65864;SHT30;52639;51.180;20.460;2024-03-07T10:32:13;4.38;67.07
65864;SHT30;52639;51.180;20.460;2024-03-07T10:36:15;7.65;59.72
65864;SHT30;52639;51.180;20.460;2024-03-07T10:40:17;6.41;61.66
65864;SHT30;52639;51.180;20.460;2024-03-07T10:44:23;6.32;63.83
65864;SHT30;52639;51.180;20.460;2024-03-07T10:48:29;5.58;64.10
65864;SHT30;52639;51.180;20.460;2024-03-07T10:52:33;5.18;67.11
65864;SHT30;52639;51.180;20.460;2024-03-07T10:56:39;4.79;65.54
65864;SHT30;52639;51.180;20.460;2024-03-07T11:00:45;4.62;66.37
65864;SHT30;52639;51.180;20.460;2024-03-07T11:04:50;4.49;67.74
65864;SHT30;52639;51.180;20.460;2024-03-07T11:09:09;4.76;66.53
65864;SHT30;52639;51.180;20.460;2024-03-07T11:13:11;5.05;65.55
65864;SHT30;52639;51.180;20.460;2024-03-07T11:17:15;4.33;66.89
65864;SHT30;52639;51.180;20.460;2024-03-07T11:25:41;4.09;67.89
65864;SHT30;52639;51.180;20.460;2024-03-07T11:29:47;4.36;67.68
65864;SHT30;52639;51.180;20.460;2024-03-07T11:38:06;4.15;68.10
65864;SHT30;52639;51.180;20.460;2024-03-07T11:42:10;3.61;69.11
65864;SHT30;52639;51.180;20.460;2024-03-07T11:46:20;4.19;69.11
65864;SHT30;52639;51.180;20.460;2024-03-07T11:50:28;4.06;67.65
65864;SHT30;52639;51.180;20.460;2024-03-07T11:54:35;3.96;68.91
65864;SHT30;52639;51.180;20.460;2024-03-07T11:58:41;3.98;68.63
65864;SHT30;52639;51.180;20.460;2024-03-07T12:02:43;4.19;68.61
65864;SHT30;52639;51.180;20.460;2024-03-07T12:06:49;4.74;68.47
65864;SHT30;52639;51.180;20.460;2024-03-07T12:10:52;4.93;67.91
65864;SHT30;52639;51.180;20.460;2024-03-07T12:14:58;5.58;67.16
65864;SHT30;52639;51.180;20.460;2024-03-07T12:23:25;5.65;64.45
65864;SHT30;52639;51.180;20.460;2024-03-07T12:27:27;4.97;66.23
65864;SHT30;52639;51.180;20.460;2024-03-07T12:31:30;5.18;67.24
65864;SHT30;52639;51.180;20.460;2024-03-07T12:35:34;5.55;63.80
65864;SHT30;52639;51.180;20.460;2024-03-07T12:39:36;5.39;63.90
65864;SHT30;52639;51.180;20.460;2024-03-07T12:43:54;4.84;65.22
65864;SHT30;52639;51.180;20.460;2024-03-07T12:47:59;4.06;68.23
65864;SHT30;52639;51.180;20.460;2024-03-07T12:52:08;3.82;68.10
65864;SHT30;52639;51.180;20.460;2024-03-07T12:56:14;3.68;68.24
65864;SHT30;52639;51.180;20.460;2024-03-07T13:00:18;3.85;69.21
65864;SHT30;52639;51.180;20.460;2024-03-07T13:04:26;3.98;68.63
65864;SHT30;52639;51.180;20.460;2024-03-07T13:08:30;3.86;68.67
65864;SHT30;52639;51.180;20.460;2024-03-07T13:12:32;3.41;68.88
65864;SHT30;52639;51.180;20.460;2024-03-07T13:16:34;3.34;70.06
65864;SHT30;52639;51.180;20.460;2024-03-07T13:20:39;3.38;69.37
65864;SHT30;52639;51.180;20.460;2024-03-07T13:24:45;3.38;69.39
65864;SHT30;52639;51.180;20.460;2024-03-07T13:28:51;3.14;70.12
65864;SHT30;52639;51.180;20.460;2024-03-07T13:32:58;3.13;70.47
65864;SHT30;52639;51.180;20.460;2024-03-07T13:37:11;3.14;70.17
65864;SHT30;52639;51.180;20.460;2024-03-07T13:41:19;2.95;70.82
65864;SHT30;52639;51.180;20.460;2024-03-07T13:45:32;3.06;71.42
65864;SHT30;52639;51.180;20.460;2024-03-07T13:49:42;3.41;70.80
65864;SHT30;52639;51.180;20.460;2024-03-07T13:53:46;3.65;69.40
65864;SHT30;52639;51.180;20.460;2024-03-07T13:58:03;3.75;68.71
65864;SHT30;52639;51.180;20.460;2024-03-07T14:02:11;3.50;69.54
65864;SHT30;52639;51.180;20.460;2024-03-07T14:06:21;3.40;70.10
65864;SHT30;52639;51.180;20.460;2024-03-07T14:19:42;3.16;70.24
65864;SHT30;52639;51.180;20.460;2024-03-07T14:28:13;2.39;72.21
65864;SHT30;52639;51.180;20.460;2024-03-07T14:32:51;2.34;73.16
65864;SHT30;52639;51.180;20.460;2024-03-07T14:36:57;2.42;72.75
65864;SHT30;52639;51.180;20.460;2024-03-07T14:41:03;2.55;73.01
65864;SHT30;52639;51.180;20.460;2024-03-07T14:45:30;2.60;72.17
65864;SHT30;52639;51.180;20.460;2024-03-07T14:49:37;2.53;71.91
65864;SHT30;52639;51.180;20.460;2024-03-07T14:53:53;2.42;72.10
65864;SHT30;52639;51.180;20.460;2024-03-07T14:57:55;2.34;72.34
65864;SHT30;52639;51.180;20.460;2024-03-07T15:01:57;2.21;73.01
65864;SHT30;52639;51.180;20.460;2024-03-07T15:06:00;2.07;73.17
65864;SHT30;52639;51.180;20.460;2024-03-07T15:10:04;1.84;73.77
65864;SHT30;52639;51.180;20.460;2024-03-07T15:14:11;1.70;74.52
65864;SHT30;52639;51.180;20.460;2024-03-07T15:18:15;1.56;74.36
65864;SHT30;52639;51.180;20.460;2024-03-07T15:22:20;1.47;74.58
65864;SHT30;52639;51.180;20.460;2024-03-07T15:26:23;1.47;74.88
65864;SHT30;52639;51.180;20.460;2024-03-07T15:30:26;1.64;75.20
65864;SHT30;52639;51.180;20.460;2024-03-07T15:34:32;1.78;74.94
65864;SHT30;52639;51.180;20.460;2024-03-07T15:38:37;1.71;75.06
65864;SHT30;52639;51.180;20.460;2024-03-07T15:42:41;1.60;75.23
65864;SHT30;52639;51.180;20.460;2024-03-07T15:46:43;1.37;75.61
65864;SHT30;52639;51.180;20.460;2024-03-07T15:50:45;1.29;75.93
65864;SHT30;52639;51.180;20.460;2024-03-07T15:54:47;1.23;76.21
65864;SHT30;52639;51.180;20.460;2024-03-07T15:58:50;1.25;76.41
65864;SHT30;52639;51.180;20.460;2024-03-07T16:02:52;1.13;76.28
65864;SHT30;52639;51.180;20.460;2024-03-07T16:11:02;0.92;76.91
65864;SHT30;52639;51.180;20.460;2024-03-07T16:15:06;0.88;77.18
65864;SHT30;52639;51.180;20.460;2024-03-07T16:19:09;0.73;77.11
65864;SHT30;52639;51.180;20.460;2024-03-07T16:23:11;0.64;77.26
65864;SHT30;52639;51.180;20.460;2024-03-07T16:27:21;0.64;77.65
65864;SHT30;52639;51.180;20.460;2024-03-07T16:31:24;0.58;77.82
65864;SHT30;52639;51.180;20.460;2024-03-07T16:35:28;0.45;77.79
65864;SHT30;52639;51.180;20.460;2024-03-07T16:39:32;0.22;78.37
65864;SHT30;52639;51.180;20.460;2024-03-07T16:43:35;-0.11;78.76
65864;SHT30;52639;51.180;20.460;2024-03-07T16:47:39;-0.31;79.35
65864;SHT30;52639;51.180;20.460;2024-03-07T16:51:41;-0.42;79.69
65864;SHT30;52639;51.180;20.460;2024-03-07T16:55:43;-0.72;79.76
65864;SHT30;52639;51.180;20.460;2024-03-07T16:59:45;-1.01;80.40
65864;SHT30;52639;51.180;20.460;2024-03-07T17:03:52;-1.43;80.06
65864;SHT30;52639;51.180;20.460;2024-03-07T17:07:54;-1.78;80.91
65864;SHT30;52639;51.180;20.460;2024-03-07T17:16:09;-2.34;81.90
65864;SHT30;52639;51.180;20.460;2024-03-07T17:20:12;-2.51;82.25
65864;SHT30;52639;51.180;20.460;2024-03-07T17:24:14;-2.69;82.64
65864;SHT30;52639;51.180;20.460;2024-03-07T17:28:18;-2.79;83.20
65864;SHT30;52639;51.180;20.460;2024-03-07T17:32:21;-2.89;83.51
65864;SHT30;52639;51.180;20.460;2024-03-07T17:36:24;-3.03;83.67
65864;SHT30;52639;51.180;20.460;2024-03-07T17:40:26;-3.13;83.96
65864;SHT30;52639;51.180;20.460;2024-03-07T17:44:31;-3.21;84.10
65864;SHT30;52639;51.180;20.460;2024-03-07T17:48:35;-3.30;84.38
65864;SHT30;52639;51.180;20.460;2024-03-07T17:52:38;-3.44;84.46
65864;SHT30;52639;51.180;20.460;2024-03-07T17:56:41;-3.62;84.48
65864;SHT30;52639;51.180;20.460;2024-03-07T18:00:44;-3.75;84.95
65864;SHT30;52639;51.180;20.460;2024-03-07T18:04:46;-3.79;85.43
65864;SHT30;52639;51.180;20.460;2024-03-07T18:08:51;-3.95;85.35
65864;SHT30;52639;51.180;20.460;2024-03-07T18:12:53;-3.95;86.06
65864;SHT30;52639;51.180;20.460;2024-03-07T18:16:55;-4.02;86.20
65864;SHT30;52639;51.180;20.460;2024-03-07T18:20:57;-4.10;86.08
65864;SHT30;52639;51.180;20.460;2024-03-07T18:25:00;-4.13;86.18
65864;SHT30;52639;51.180;20.460;2024-03-07T18:29:02;-4.10;86.43
65864;SHT30;52639;51.180;20.460;2024-03-07T18:33:04;-4.13;86.36
65864;SHT30;52639;51.180;20.460;2024-03-07T18:37:08;-4.13;86.53
65864;SHT30;52639;51.180;20.460;2024-03-07T18:41:17;-4.22;86.39
65864;SHT30;52639;51.180;20.460;2024-03-07T18:45:27;-4.30;86.40
65864;SHT30;52639;51.180;20.460;2024-03-07T18:49:33;-4.32;86.72
65864;SHT30;52639;51.180;20.460;2024-03-07T18:53:35;-4.34;86.63
65864;SHT30;52639;51.180;20.460;2024-03-07T18:57:39;-4.30;86.57
65864;SHT30;52639;51.180;20.460;2024-03-07T19:01:43;-4.37;86.78
65864;SHT30;52639;51.180;20.460;2024-03-07T19:05:52;-4.48;86.56
65864;SHT30;52639;51.180;20.460;2024-03-07T19:09:54;-4.59;87.19
65864;SHT30;52639;51.180;20.460;2024-03-07T19:13:57;-4.61;87.06
65864;SHT30;52639;51.180;20.460;2024-03-07T19:18:17;-4.63;87.35
65864;SHT30;52639;51.180;20.460;2024-03-07T19:22:19;-4.56;87.67
65864;SHT30;52639;51.180;20.460;2024-03-07T19:26:20;-4.61;86.89
65864;SHT30;52639;51.180;20.460;2024-03-07T19:30:24;-4.69;87.18
65864;SHT30;52639;51.180;20.460;2024-03-07T19:34:28;-4.79;87.42
65864;SHT30;52639;51.180;20.460;2024-03-07T19:38:34;-4.79;87.66
65864;SHT30;52639;51.180;20.460;2024-03-07T19:42:37;-4.90;87.55
65864;SHT30;52639;51.180;20.460;2024-03-07T19:46:40;-4.84;87.96
65864;SHT30;52639;51.180;20.460;2024-03-07T19:50:43;-4.95;87.80
65864;SHT30;52639;51.180;20.460;2024-03-07T19:54:46;-5.00;88.25
65864;SHT30;52639;51.180;20.460;2024-03-07T19:58:48;-5.01;88.28
65864;SHT30;52639;51.180;20.460;2024-03-07T20:02:53;-5.11;88.36
65864;SHT30;52639;51.180;20.460;2024-03-07T20:06:56;-5.15;88.47
65864;SHT30;52639;51.180;20.460;2024-03-07T20:10:59;-5.14;88.67
65864;SHT30;52639;51.180;20.460;2024-03-07T20:15:01;-5.12;88.63
65864;SHT30;52639;51.180;20.460;2024-03-07T20:19:04;-5.03;88.59
65864;SHT30;52639;51.180;20.460;2024-03-07T20:23:06;-5.09;88.69
65864;SHT30;52639;51.180;20.460;2024-03-07T20:27:08;-5.07;88.50
65864;SHT30;52639;51.180;20.460;2024-03-07T20:31:11;-5.11;88.60
65864;SHT30;52639;51.180;20.460;2024-03-07T20:35:16;-5.21;88.83
65864;SHT30;52639;51.180;20.460;2024-03-07T20:39:20;-5.25;88.99
65864;SHT30;52639;51.180;20.460;2024-03-07T20:43:24;-5.35;88.73
65864;SHT30;52639;51.180;20.460;2024-03-07T20:47:28;-5.39;89.04
65864;SHT30;52639;51.180;20.460;2024-03-07T20:51:31;-5.52;88.94
65864;SHT30;52639;51.180;20.460;2024-03-07T20:55:37;-5.58;89.31
65864;SHT30;52639;51.180;20.460;2024-03-07T20:59:40;-5.48;89.34
65864;SHT30;52639;51.180;20.460;2024-03-07T21:03:42;-5.46;89.11
65864;SHT30;52639;51.180;20.460;2024-03-07T21:07:45;-5.48;89.41
65864;SHT30;52639;51.180;20.460;2024-03-07T21:11:46;-5.48;89.35
65864;SHT30;52639;51.180;20.460;2024-03-07T21:15:51;-5.58;89.39
65864;SHT30;52639;51.180;20.460;2024-03-07T21:19:55;-5.72;89.30
65864;SHT30;52639;51.180;20.460;2024-03-07T21:23:58;-5.78;89.36
65864;SHT30;52639;51.180;20.460;2024-03-07T21:28:00;-5.76;89.49
65864;SHT30;52639;51.180;20.460;2024-03-07T21:32:01;-5.89;89.65
65864;SHT30;52639;51.180;20.460;2024-03-07T21:36:04;-5.92;89.57
65864;SHT30;52639;51.180;20.460;2024-03-07T21:40:09;-5.79;90.03
65864;SHT30;52639;51.180;20.460;2024-03-07T21:44:15;-5.66;89.73
65864;SHT30;52639;51.180;20.460;2024-03-07T21:48:17;-5.75;89.17
65864;SHT30;52639;51.180;20.460;2024-03-07T21:52:22;-5.80;89.39
65864;SHT30;52639;51.180;20.460;2024-03-07T21:56:27;-5.83;89.39
65864;SHT30;52639;51.180;20.460;2024-03-07T22:00:29;-5.85;89.11
65864;SHT30;52639;51.180;20.460;2024-03-07T22:04:31;-5.87;89.31
65864;SHT30;52639;51.180;20.460;2024-03-07T22:08:33;-5.94;88.99
65864;SHT30;52639;51.180;20.460;2024-03-07T22:12:38;-5.90;89.74
65864;SHT30;52639;51.180;20.460;2024-03-07T22:16:40;-5.96;89.68
65864;SHT30;52639;51.180;20.460;2024-03-07T22:20:42;-6.11;89.40
65864;SHT30;52639;51.180;20.460;2024-03-07T22:24:44;-6.14;89.60
65864;SHT30;52639;51.180;20.460;2024-03-07T22:28:48;-6.21;89.49
65864;SHT30;52639;51.180;20.460;2024-03-07T22:36:55;-6.23;89.51
65864;SHT30;52639;51.180;20.460;2024-03-07T22:40:58;-6.33;89.37
65864;SHT30;52639;51.180;20.460;2024-03-07T22:45:01;-6.25;89.81
65864;SHT30;52639;51.180;20.460;2024-03-07T22:49:05;-6.35;89.69
65864;SHT30;52639;51.180;20.460;2024-03-07T22:53:07;-6.33;89.86
65864;SHT30;52639;51.180;20.460;2024-03-07T22:57:09;-6.28;89.84
65864;SHT30;52639;51.180;20.460;2024-03-07T23:01:13;-6.25;89.55
65864;SHT30;52639;51.180;20.460;2024-03-07T23:05:15;-6.31;89.86
65864;SHT30;52639;51.180;20.460;2024-03-07T23:09:17;-6.41;89.54
65864;SHT30;52639;51.180;20.460;2024-03-07T23:13:22;-6.42;89.64
65864;SHT30;52639;51.180;20.460;2024-03-07T23:17:25;-6.51;89.58
65864;SHT30;52639;51.180;20.460;2024-03-07T23:21:30;-6.54;89.90
65864;SHT30;52639;51.180;20.460;2024-03-07T23:25:32;-6.57;89.99
65864;SHT30;52639;51.180;20.460;2024-03-07T23:33:46;-6.77;89.99
65864;SHT30;52639;51.180;20.460;2024-03-07T23:37:51;-6.77;90.25
65864;SHT30;52639;51.180;20.460;2024-03-07T23:42:04;-6.78;90.08
65864;SHT30;52639;51.180;20.460;2024-03-07T23:46:06;-6.88;89.94
65864;SHT30;52639;51.180;20.460;2024-03-07T23:50:10;-6.88;90.26
65864;SHT30;52639;51.180;20.460;2024-03-07T23:54:12;-6.75;90.39
65864;SHT30;52639;51.180;20.460;2024-03-07T23:58:17;-6.52;90.84
